• Join FlightAware (Why Join?)
  • Login
  • US Flag 
09:49PM EDT


 

Airport Tracker/Info


-or-


 

Live Flight TrackerFlight Track Log ✈ DAL6036 ✈ 23-Apr-2013 ✈ KDTW - KTVC

Flight Track Log - Related Links

Times and Time Zones

All times are in EDT time to prevent confusion due to time zone crossing. See the DAL6036 flight status page for this flight to view local times or setup timezone preferences in your user account.

Time Position Orientation Groundspeed Altitude Reporting Facility
EDT Latitude Longitude Course Direction KTS MPH feet Rate Location/Type
08:42PM 42.2031 -83.3578 North 153 176 1,500  Level FAA TRACON SMA TRACON (SMA)
08:43PM 42.1931 -83.3742 231° Southwest 162 186 2,200 2,100 Climbing FAA TRACON SMA TRACON (SMA)
08:43PM 42.1847 -83.3864 227° Southwest 174 200 2,900 2,100 Climbing FAA TRACON SMA TRACON (SMA)
08:43PM 42.1747 -83.4042 233° Southwest 175 201 3,600 2,760 Climbing FAA TRACON SMA TRACON (SMA)
08:44PM 42.1628 -83.4231 230° Southwest 176 203 4,800 3,000 Climbing FAA TRACON SMA TRACON (SMA)
08:44PM 42.1531 -83.4383 229° Southwest 176 203 5,600 2,400 Climbing FAA TRACON SMA TRACON (SMA)
08:44PM 42.1481 -83.4622 254° West 196 226 6,400 1,500 Climbing FAA TRACON SMA TRACON (SMA)
08:45PM 42.1572 -83.4844 299° West 245 282 6,600 900 Climbing FAA TRACON SMA TRACON (SMA)
08:45PM 42.1686 -83.5089 302° West 253 291 7,000 1,860 Climbing FAA TRACON SMA TRACON (SMA)
08:45PM 42.1831 -83.5414 301° West 263 303 7,900 2,520 Climbing FAA TRACON SMA TRACON (SMA)
08:46PM 42.5873 -83.3500 North  Level FlightAware Approximate
08:46PM 42.1947 -83.5675 301° West 262 302 8,700  Level FAA TRACON SMA TRACON (SMA)
08:46PM 42.2094 -83.5953 306° West 254 292 9,700 1,800 Climbing FAA TRACON SMA TRACON (SMA)
08:47PM 42.6841 -83.3500 North  Level FlightAware Approximate
08:47PM 42.2592 -83.6050 352° North 318 366 10,500  Level FAA TRACON SMA TRACON (SMA)
08:47PM 42.2894 -83.6053 360° North 323 372 11,000 1,800 Climbing FAA TRACON SMA TRACON (SMA)
08:47PM 42.3250 -83.6039 North 330 380 11,700 1,620 Climbing FAA TRACON SMA TRACON (SMA)
08:48PM 42.3544 -83.5978 North 362 417 12,100 1,260 Climbing FAA TRACON SMA TRACON (SMA)
08:48PM 42.3897 -83.5828 17° North 363 418 12,600 1,200 Climbing FAA TRACON SMA TRACON (SMA)
08:48PM 42.4197 -83.5706 17° North 367 422 12,900 1,020 Climbing FAA TRACON SMA TRACON (SMA)
08:49PM 42.4503 -83.5578 17° North 372 428 13,300 1,440 Climbing FAA TRACON SMA TRACON (SMA)
08:49PM 42.4892 -83.5419 17° North 379 436 13,900 1,500 Climbing FAA TRACON SMA TRACON (SMA)
08:49PM 42.5206 -83.5292 17° North 382 440 14,300 1,380 Climbing FAA TRACON SMA TRACON (SMA)
08:50PM 42.5519 -83.5167 16° North 381 438 14,800 1,560 Climbing FAA TRACON SMA TRACON (SMA)
08:50PM 42.5911 -83.5000 17° North 381 438 15,400 1,500 Climbing FAA TRACON SMA TRACON (SMA)
08:50PM 42.6225 -83.4869 17° North 383 441 15,800 1,200 Climbing FAA TRACON SMA TRACON (SMA)
08:51PM 42.6544 -83.4742 16° North 386 444 16,200 1,200 Climbing FAA TRACON SMA TRACON (SMA)
08:51PM 42.6867 -83.4606 17° North 390 449 16,600 1,200 Climbing FAA TRACON SMA TRACON (SMA)
08:51PM 42.7272 -83.4439 17° North 394 453 17,000 1,260 Climbing FAA TRACON SMA TRACON (SMA)
08:52PM 42.7597 -83.4300 17° North 396 456 17,500 1,320 Climbing FAA TRACON SMA TRACON (SMA)
08:52PM 42.7925 -83.4167 17° North 397 457 17,900 1,320 Climbing FAA TRACON SMA TRACON (SMA)
08:52PM 42.8331 -83.4000 17° North 398 458 18,400 1,320 Climbing FAA TRACON SMA TRACON (SMA)
08:53PM 42.8661 -83.3861 17° North 400 460 18,800 1,200 Climbing FAA TRACON SMA TRACON (SMA)
08:53PM 42.8989 -83.3731 16° North 399 459 19,200 1,260 Climbing FAA TRACON SMA TRACON (SMA)
08:53PM 42.9408 -83.3667 North 393 452 19,700 1,200 Climbing FAA TRACON SMA TRACON (SMA)
08:54PM 42.9742 -83.3669 360° North 390 449 20,000 420 Climbing FAA TRACON SMA TRACON (SMA)
08:54PM 43.0169 -83.3667 360° North 399 459 20,000  Level FAA TRACON SMA TRACON (SMA)
08:54PM 43.0517 -83.3731 352° North 407 468 20,000  Level FAA TRACON SMA TRACON (SMA)
08:55PM 43.0831 -83.3919 336° Northwest 400 460 20,000  Level FAA TRACON SMA TRACON (SMA)
08:55PM 43.0975 -83.4050 327° Northwest 408 470 20,000  Level FAA TRACON SMA TRACON (SMA)
08:56PM 43.1533 -83.4831 314° West 364 419 20,000  Level Cleveland Center
08:57PM 43.2253 -83.5975 311° West 382 440 20,000  Level Cleveland Center
08:58PM 43.2953 -83.7122 310° West 387 445 20,000  Level Cleveland Center
08:59PM 43.3692 -83.8247 312° West 387 445 20,000  Level Cleveland Center
09:01PM 43.5247 -84.0664 312° West 388 447 20,000  Level Minneapolis Center
09:02PM 43.6042 -84.1703 317° Northwest 391 450 20,000  Level Minneapolis Center
09:03PM 43.7025 -84.2953 317° Northwest 399 459 20,000  Level Minneapolis Center
09:04PM 43.8025 -84.4219 318° Northwest 405 466 20,000  Level Minneapolis Center
09:05PM 43.8856 -84.5278 317° Northwest 408 470 20,000  Level Minneapolis Center
09:06PM 43.9681 -84.6328 318° Northwest 407 468 20,000 -60 Level Minneapolis Center
09:07PM 44.0547 -84.7436 317° Northwest 407 468 19,900 -240 Descending Minneapolis Center
09:08PM 44.1594 -84.8181 333° Northwest 424 488 19,600 -2,040 Descending Minneapolis Center
09:09PM 44.2586 -84.8881 333° Northwest 410 472 15,700 -3,480 Descending Minneapolis Center
09:10PM 44.3536 -84.9597 332° Northwest 396 456 12,500 -2,700 Descending Minneapolis Center
09:11PM 44.4431 -85.0300 331° Northwest 379 436 10,200 -2,220 Descending Minneapolis Center
09:12PM 44.5264 -85.0967 330° Northwest 299 344 8,000 -2,100 Descending Minneapolis Center
09:13PM 44.5906 -85.1497 330° Northwest 278 320 5,900 -1,860 Descending Minneapolis Center
09:15PM 44.6594 -85.2108 328° Northwest 261 300 3,800 -1,200 Descending Minneapolis Center
09:16PM 44.6989 -85.2661 315° West 244 281 3,200 -360 Descending Minneapolis Center
09:17PM 44.7194 -85.3356 293° West 214 246 3,100 -240 Descending Minneapolis Center
09:18PM 44.7336 -85.4158 284° West 191 220 2,800 -300 Descending Minneapolis Center